sensor_id;sensor_type;location;lat;lon;timestamp;temperature;humidity
3268;DHT22;1646;52.450;13.326;2023-08-24T00:00:27;20.90;99.90
3268;DHT22;1646;52.450;13.326;2023-08-24T00:05:25;20.90;99.90
3268;DHT22;1646;52.450;13.326;2023-08-24T00:10:23;20.80;99.90
3268;DHT22;1646;52.450;13.326;2023-08-24T00:15:22;20.70;99.90
3268;DHT22;1646;52.450;13.326;2023-08-24T00:20:22;20.70;99.90
3268;DHT22;1646;52.450;13.326;2023-08-24T00:25:20;20.70;99.90
3268;DHT22;1646;52.450;13.326;2023-08-24T00:30:18;20.60;99.90
3268;DHT22;1646;52.450;13.326;2023-08-24T00:35:17;20.60;99.90
3268;DHT22;1646;52.450;13.326;2023-08-24T00:40:17;20.60;99.90
3268;DHT22;1646;52.450;13.326;2023-08-24T00:45:16;20.50;99.90
3268;DHT22;1646;52.450;13.326;2023-08-24T00:50:16;20.50;99.90
3268;DHT22;1646;52.450;13.326;2023-08-24T00:55:17;20.40;99.90
3268;DHT22;1646;52.450;13.326;2023-08-24T01:00:16;20.40;99.90
3268;DHT22;1646;52.450;13.326;2023-08-24T01:05:15;20.40;99.90
3268;DHT22;1646;52.450;13.326;2023-08-24T01:10:14;20.30;99.90
3268;DHT22;1646;52.450;13.326;2023-08-24T01:15:18;20.30;99.90
3268;DHT22;1646;52.450;13.326;2023-08-24T01:20:18;20.20;99.90
3268;DHT22;1646;52.450;13.326;2023-08-24T01:25:34;20.10;99.90
3268;DHT22;1646;52.450;13.326;2023-08-24T01:30:37;20.20;99.90
3268;DHT22;1646;52.450;13.326;2023-08-24T01:35:35;20.10;99.90
3268;DHT22;1646;52.450;13.326;2023-08-24T01:40:39;20.10;99.90
3268;DHT22;1646;52.450;13.326;2023-08-24T01:45:44;20.10;99.90
3268;DHT22;1646;52.450;13.326;2023-08-24T01:50:43;20.10;99.90
3268;DHT22;1646;52.450;13.326;2023-08-24T01:55:42;20.10;99.90
3268;DHT22;1646;52.450;13.326;2023-08-24T02:00:41;20.20;99.90
3268;DHT22;1646;52.450;13.326;2023-08-24T02:05:40;20.20;99.90
3268;DHT22;1646;52.450;13.326;2023-08-24T02:10:39;20.10;99.90
3268;DHT22;1646;52.450;13.326;2023-08-24T02:15:38;20.20;99.90
3268;DHT22;1646;52.450;13.326;2023-08-24T02:20:37;20.20;99.90
3268;DHT22;1646;52.450;13.326;2023-08-24T02:25:41;20.20;99.90
3268;DHT22;1646;52.450;13.326;2023-08-24T02:30:40;20.20;99.90
3268;DHT22;1646;52.450;13.326;2023-08-24T02:35:38;20.20;99.90
3268;DHT22;1646;52.450;13.326;2023-08-24T02:40:38;20.20;99.90
3268;DHT22;1646;52.450;13.326;2023-08-24T02:45:36;20.20;99.90
3268;DHT22;1646;52.450;13.326;2023-08-24T02:50:34;20.20;99.90
3268;DHT22;1646;52.450;13.326;2023-08-24T02:55:33;20.30;99.90
3268;DHT22;1646;52.450;13.326;2023-08-24T03:00:32;20.30;99.90
3268;DHT22;1646;52.450;13.326;2023-08-24T03:05:31;20.30;99.90
3268;DHT22;1646;52.450;13.326;2023-08-24T03:10:29;20.30;99.90
3268;DHT22;1646;52.450;13.326;2023-08-24T03:15:29;20.30;99.90
3268;DHT22;1646;52.450;13.326;2023-08-24T03:20:29;20.30;99.90
3268;DHT22;1646;52.450;13.326;2023-08-24T03:25:27;20.30;99.90
3268;DHT22;1646;52.450;13.326;2023-08-24T03:30:26;20.30;99.90
3268;DHT22;1646;52.450;13.326;2023-08-24T03:35:24;20.40;99.90
3268;DHT22;1646;52.450;13.326;2023-08-24T03:40:24;20.30;99.90
3268;DHT22;1646;52.450;13.326;2023-08-24T03:45:23;20.30;99.90
3268;DHT22;1646;52.450;13.326;2023-08-24T03:50:21;20.20;99.90
3268;DHT22;1646;52.450;13.326;2023-08-24T03:55:21;20.20;99.90
3268;DHT22;1646;52.450;13.326;2023-08-24T04:00:21;20.20;99.90
3268;DHT22;1646;52.450;13.326;2023-08-24T04:05:20;20.30;99.90
3268;DHT22;1646;52.450;13.326;2023-08-24T04:10:18;20.30;99.90
3268;DHT22;1646;52.450;13.326;2023-08-24T04:15:16;20.40;99.90
3268;DHT22;1646;52.450;13.326;2023-08-24T04:20:16;20.40;99.90
3268;DHT22;1646;52.450;13.326;2023-08-24T04:25:15;20.50;99.90
3268;DHT22;1646;52.450;13.326;2023-08-24T04:30:13;20.50;99.90
3268;DHT22;1646;52.450;13.326;2023-08-24T04:35:11;20.50;99.90
3268;DHT22;1646;52.450;13.326;2023-08-24T04:40:11;20.50;99.90
3268;DHT22;1646;52.450;13.326;2023-08-24T04:45:09;20.60;99.90
3268;DHT22;1646;52.450;13.326;2023-08-24T04:50:08;20.60;99.90
3268;DHT22;1646;52.450;13.326;2023-08-24T04:55:08;20.50;99.90
3268;DHT22;1646;52.450;13.326;2023-08-24T05:00:09;20.50;99.90
3268;DHT22;1646;52.450;13.326;2023-08-24T05:05:12;20.40;99.90
3268;DHT22;1646;52.450;13.326;2023-08-24T05:10:11;20.30;99.90
3268;DHT22;1646;52.450;13.326;2023-08-24T05:15:11;20.40;99.90
3268;DHT22;1646;52.450;13.326;2023-08-24T05:20:11;20.60;99.90
3268;DHT22;1646;52.450;13.326;2023-08-24T05:25:09;20.80;99.90
3268;DHT22;1646;52.450;13.326;2023-08-24T05:30:08;20.90;99.90
3268;DHT22;1646;52.450;13.326;2023-08-24T05:35:09;20.90;99.90
3268;DHT22;1646;52.450;13.326;2023-08-24T05:40:08;21.00;99.90
3268;DHT22;1646;52.450;13.326;2023-08-24T05:45:07;21.20;99.90
3268;DHT22;1646;52.450;13.326;2023-08-24T05:50:08;21.30;99.90
3268;DHT22;1646;52.450;13.326;2023-08-24T05:55:08;21.40;99.90
3268;DHT22;1646;52.450;13.326;2023-08-24T06:00:07;21.50;99.90
3268;DHT22;1646;52.450;13.326;2023-08-24T06:05:12;21.50;99.90
3268;DHT22;1646;52.450;13.326;2023-08-24T06:10:11;21.60;99.90
3268;DHT22;1646;52.450;13.326;2023-08-24T06:15:10;21.80;99.90
3268;DHT22;1646;52.450;13.326;2023-08-24T06:20:13;22.00;99.90
3268;DHT22;1646;52.450;13.326;2023-08-24T06:25:11;22.20;99.90
3268;DHT22;1646;52.450;13.326;2023-08-24T06:30:11;22.30;99.90
3268;DHT22;1646;52.450;13.326;2023-08-24T06:35:10;22.30;99.90
3268;DHT22;1646;52.450;13.326;2023-08-24T06:40:13;22.20;99.90
3268;DHT22;1646;52.450;13.326;2023-08-24T06:45:11;22.20;99.90
3268;DHT22;1646;52.450;13.326;2023-08-24T06:50:10;22.20;99.90
3268;DHT22;1646;52.450;13.326;2023-08-24T06:55:09;22.20;99.90
3268;DHT22;1646;52.450;13.326;2023-08-24T07:00:09;22.40;99.90
3268;DHT22;1646;52.450;13.326;2023-08-24T07:05:12;22.70;99.90
3268;DHT22;1646;52.450;13.326;2023-08-24T07:10:10;23.00;99.90
3268;DHT22;1646;52.450;13.326;2023-08-24T07:15:10;23.30;99.90
3268;DHT22;1646;52.450;13.326;2023-08-24T07:20:09;23.40;99.90
3268;DHT22;1646;52.450;13.326;2023-08-24T07:25:09;23.60;99.90
3268;DHT22;1646;52.450;13.326;2023-08-24T07:30:11;23.60;99.90
3268;DHT22;1646;52.450;13.326;2023-08-24T07:35:29;23.50;99.90
3268;DHT22;1646;52.450;13.326;2023-08-24T07:40:27;23.60;99.90
3268;DHT22;1646;52.450;13.326;2023-08-24T07:45:27;23.90;99.90
3268;DHT22;1646;52.450;13.326;2023-08-24T07:50:26;24.10;99.90
3268;DHT22;1646;52.450;13.326;2023-08-24T07:55:24;24.30;99.90
3268;DHT22;1646;52.450;13.326;2023-08-24T08:00:23;24.40;99.90
3268;DHT22;1646;52.450;13.326;2023-08-24T08:05:23;24.60;99.90
3268;DHT22;1646;52.450;13.326;2023-08-24T08:10:21;24.70;99.90
3268;DHT22;1646;52.450;13.326;2023-08-24T08:15:20;24.90;99.90
3268;DHT22;1646;52.450;13.326;2023-08-24T08:20:18;25.30;99.90
3268;DHT22;1646;52.450;13.326;2023-08-24T08:25:18;25.40;99.90
3268;DHT22;1646;52.450;13.326;2023-08-24T08:30:16;25.30;99.90
3268;DHT22;1646;52.450;13.326;2023-08-24T08:35:17;25.60;99.90
3268;DHT22;1646;52.450;13.326;2023-08-24T08:40:18;25.80;99.90
3268;DHT22;1646;52.450;13.326;2023-08-24T08:45:19;25.60;99.90
3268;DHT22;1646;52.450;13.326;2023-08-24T08:50:22;25.80;99.90
3268;DHT22;1646;52.450;13.326;2023-08-24T08:55:22;26.00;99.90
3268;DHT22;1646;52.450;13.326;2023-08-24T09:00:21;26.10;99.90
3268;DHT22;1646;52.450;13.326;2023-08-24T09:05:19;26.00;99.90
3268;DHT22;1646;52.450;13.326;2023-08-24T09:10:18;26.20;99.90
3268;DHT22;1646;52.450;13.326;2023-08-24T09:15:25;26.20;99.90
3268;DHT22;1646;52.450;13.326;2023-08-24T09:20:28;26.70;99.90
3268;DHT22;1646;52.450;13.326;2023-08-24T09:25:26;27.10;99.90
3268;DHT22;1646;52.450;13.326;2023-08-24T09:30:30;27.00;99.90
3268;DHT22;1646;52.450;13.326;2023-08-24T09:35:35;26.80;99.90
3268;DHT22;1646;52.450;13.326;2023-08-24T09:40:33;26.50;99.90
3268;DHT22;1646;52.450;13.326;2023-08-24T09:45:33;26.80;99.90
3268;DHT22;1646;52.450;13.326;2023-08-24T09:50:32;29.10;99.90
3268;DHT22;1646;52.450;13.326;2023-08-24T09:55:35;31.70;99.90
3268;DHT22;1646;52.450;13.326;2023-08-24T10:00:36;33.50;99.90
3268;DHT22;1646;52.450;13.326;2023-08-24T10:05:35;35.00;94.30
3268;DHT22;1646;52.450;13.326;2023-08-24T10:10:54;36.50;91.30
3268;DHT22;1646;52.450;13.326;2023-08-24T10:15:58;37.40;77.40
3268;DHT22;1646;52.450;13.326;2023-08-24T10:20:57;36.40;74.10
3268;DHT22;1646;52.450;13.326;2023-08-24T10:25:56;36.30;72.90
3268;DHT22;1646;52.450;13.326;2023-08-24T10:30:59;36.30;77.00
3268;DHT22;1646;52.450;13.326;2023-08-24T10:35:58;36.40;72.40
3268;DHT22;1646;52.450;13.326;2023-08-24T10:41:01;36.20;73.00
3268;DHT22;1646;52.450;13.326;2023-08-24T10:46:02;35.20;70.30
3268;DHT22;1646;52.450;13.326;2023-08-24T10:51:17;34.10;70.60
3268;DHT22;1646;52.450;13.326;2023-08-24T10:56:18;33.10;76.80
3268;DHT22;1646;52.450;13.326;2023-08-24T11:01:18;33.30;75.80
3268;DHT22;1646;52.450;13.326;2023-08-24T11:06:20;33.50;73.40
3268;DHT22;1646;52.450;13.326;2023-08-24T11:11:20;33.00;74.30
3268;DHT22;1646;52.450;13.326;2023-08-24T11:16:41;33.10;77.40
3268;DHT22;1646;52.450;13.326;2023-08-24T11:21:40;33.50;77.00
3268;DHT22;1646;52.450;13.326;2023-08-24T11:26:43;33.60;73.10
3268;DHT22;1646;52.450;13.326;2023-08-24T11:31:43;33.10;74.50
3268;DHT22;1646;52.450;13.326;2023-08-24T11:36:43;32.80;74.50
3268;DHT22;1646;52.450;13.326;2023-08-24T11:41:41;32.80;75.60
3268;DHT22;1646;52.450;13.326;2023-08-24T11:46:40;33.10;77.10
3268;DHT22;1646;52.450;13.326;2023-08-24T11:51:39;33.60;73.70
3268;DHT22;1646;52.450;13.326;2023-08-24T11:56:55;33.60;73.80
3268;DHT22;1646;52.450;13.326;2023-08-24T12:01:53;33.30;74.50
3268;DHT22;1646;52.450;13.326;2023-08-24T12:06:53;33.50;75.20
3268;DHT22;1646;52.450;13.326;2023-08-24T12:11:55;33.60;75.70
3268;DHT22;1646;52.450;13.326;2023-08-24T12:16:54;33.50;74.60
3268;DHT22;1646;52.450;13.326;2023-08-24T12:21:54;34.00;73.80
3268;DHT22;1646;52.450;13.326;2023-08-24T12:26:56;34.00;71.20
3268;DHT22;1646;52.450;13.326;2023-08-24T12:31:57;33.70;74.20
3268;DHT22;1646;52.450;13.326;2023-08-24T12:36:57;33.50;72.90
3268;DHT22;1646;52.450;13.326;2023-08-24T12:41:56;33.60;72.40
3268;DHT22;1646;52.450;13.326;2023-08-24T12:46:54;33.30;72.30
3268;DHT22;1646;52.450;13.326;2023-08-24T12:51:52;33.30;75.30
3268;DHT22;1646;52.450;13.326;2023-08-24T12:56:52;33.10;71.60
3268;DHT22;1646;52.450;13.326;2023-08-24T13:01:50;32.60;73.00
3268;DHT22;1646;52.450;13.326;2023-08-24T13:06:48;32.20;74.10
3268;DHT22;1646;52.450;13.326;2023-08-24T13:11:48;31.80;77.10
3268;DHT22;1646;52.450;13.326;2023-08-24T13:16:48;31.70;76.30
3268;DHT22;1646;52.450;13.326;2023-08-24T13:21:46;31.90;78.50
3268;DHT22;1646;52.450;13.326;2023-08-24T13:26:45;32.00;76.50
3268;DHT22;1646;52.450;13.326;2023-08-24T13:31:43;31.80;75.60
3268;DHT22;1646;52.450;13.326;2023-08-24T13:36:43;31.80;75.90
3268;DHT22;1646;52.450;13.326;2023-08-24T13:41:41;31.80;77.00
3268;DHT22;1646;52.450;13.326;2023-08-24T13:46:40;32.20;78.10
3268;DHT22;1646;52.450;13.326;2023-08-24T13:51:38;32.40;74.10
3268;DHT22;1646;52.450;13.326;2023-08-24T13:56:38;32.00;74.20
3268;DHT22;1646;52.450;13.326;2023-08-24T14:01:37;31.50;74.70
3268;DHT22;1646;52.450;13.326;2023-08-24T14:06:36;31.60;76.20
3268;DHT22;1646;52.450;13.326;2023-08-24T14:11:34;31.80;74.30
3268;DHT22;1646;52.450;13.326;2023-08-24T14:16:34;31.90;76.70
3268;DHT22;1646;52.450;13.326;2023-08-24T14:21:32;32.10;79.00
3268;DHT22;1646;52.450;13.326;2023-08-24T14:26:34;32.20;80.10
3268;DHT22;1646;52.450;13.326;2023-08-24T14:31:35;32.50;75.30
3268;DHT22;1646;52.450;13.326;2023-08-24T14:36:34;32.40;75.80
3268;DHT22;1646;52.450;13.326;2023-08-24T14:41:32;32.50;75.80
3268;DHT22;1646;52.450;13.326;2023-08-24T14:46:30;32.40;76.30
3268;DHT22;1646;52.450;13.326;2023-08-24T14:51:31;32.50;76.80
3268;DHT22;1646;52.450;13.326;2023-08-24T14:56:29;32.60;74.70
3268;DHT22;1646;52.450;13.326;2023-08-24T15:01:28;32.80;74.40
3268;DHT22;1646;52.450;13.326;2023-08-24T15:06:26;32.70;72.90
3268;DHT22;1646;52.450;13.326;2023-08-24T15:11:26;32.40;74.90
3268;DHT22;1646;52.450;13.326;2023-08-24T15:16:24;32.20;74.40
3268;DHT22;1646;52.450;13.326;2023-08-24T15:21:23;32.60;73.80
3268;DHT22;1646;52.450;13.326;2023-08-24T15:26:21;32.80;72.10
3268;DHT22;1646;52.450;13.326;2023-08-24T15:31:21;32.70;74.80
3268;DHT22;1646;52.450;13.326;2023-08-24T15:36:19;32.60;72.70
3268;DHT22;1646;52.450;13.326;2023-08-24T15:41:17;32.50;73.20
3268;DHT22;1646;52.450;13.326;2023-08-24T15:46:15;32.20;77.30
3268;DHT22;1646;52.450;13.326;2023-08-24T15:51:15;32.40;74.80
3268;DHT22;1646;52.450;13.326;2023-08-24T15:56:14;32.20;74.80
3268;DHT22;1646;52.450;13.326;2023-08-24T16:01:12;31.60;74.80
3268;DHT22;1646;52.450;13.326;2023-08-24T16:06:11;31.20;76.20
3268;DHT22;1646;52.450;13.326;2023-08-24T16:11:12;30.70;75.80
3268;DHT22;1646;52.450;13.326;2023-08-24T16:16:11;30.40;74.70
3268;DHT22;1646;52.450;13.326;2023-08-24T16:21:09;30.10;75.30
3268;DHT22;1646;52.450;13.326;2023-08-24T16:26:07;30.10;75.30
3268;DHT22;1646;52.450;13.326;2023-08-24T16:31:07;30.10;75.90
3268;DHT22;1646;52.450;13.326;2023-08-24T16:36:06;30.30;78.20
3268;DHT22;1646;52.450;13.326;2023-08-24T16:41:04;30.40;76.70
3268;DHT22;1646;52.450;13.326;2023-08-24T16:46:03;30.30;76.40
3268;DHT22;1646;52.450;13.326;2023-08-24T16:51:03;30.10;75.80
3268;DHT22;1646;52.450;13.326;2023-08-24T16:56:01;30.10;76.70
3268;DHT22;1646;52.450;13.326;2023-08-24T17:01:05;29.80;77.80
3268;DHT22;1646;52.450;13.326;2023-08-24T17:06:05;29.70;80.00
3268;DHT22;1646;52.450;13.326;2023-08-24T17:11:04;29.50;82.20
3268;DHT22;1646;52.450;13.326;2023-08-24T17:16:03;29.40;81.60
3268;DHT22;1646;52.450;13.326;2023-08-24T17:21:02;29.30;87.20
3268;DHT22;1646;52.450;13.326;2023-08-24T17:26:02;29.20;86.00
3268;DHT22;1646;52.450;13.326;2023-08-24T17:31:00;29.00;89.90
3268;DHT22;1646;52.450;13.326;2023-08-24T17:36:02;28.80;88.60
3268;DHT22;1646;52.450;13.326;2023-08-24T17:41:02;28.60;90.00
3268;DHT22;1646;52.450;13.326;2023-08-24T17:46:01;28.40;90.40
3268;DHT22;1646;52.450;13.326;2023-08-24T17:51:00;28.20;90.30
3268;DHT22;1646;52.450;13.326;2023-08-24T17:56:04;28.00;90.90
3268;DHT22;1646;52.450;13.326;2023-08-24T18:01:02;27.80;91.70
3268;DHT22;1646;52.450;13.326;2023-08-24T18:06:01;27.60;91.70
3268;DHT22;1646;52.450;13.326;2023-08-24T18:11:04;27.40;92.00
3268;DHT22;1646;52.450;13.326;2023-08-24T18:16:03;27.30;92.70
3268;DHT22;1646;52.450;13.326;2023-08-24T18:21:03;27.20;92.90
3268;DHT22;1646;52.450;13.326;2023-08-24T18:26:03;27.00;93.40
3268;DHT22;1646;52.450;13.326;2023-08-24T18:31:02;26.90;93.90
3268;DHT22;1646;52.450;13.326;2023-08-24T18:36:01;26.80;94.90
3268;DHT22;1646;52.450;13.326;2023-08-24T18:41:00;26.70;95.40
3268;DHT22;1646;52.450;13.326;2023-08-24T18:46:02;26.60;95.70
3268;DHT22;1646;52.450;13.326;2023-08-24T18:51:01;26.50;95.90
3268;DHT22;1646;52.450;13.326;2023-08-24T18:56:00;26.40;96.50
3268;DHT22;1646;52.450;13.326;2023-08-24T19:01:00;26.20;96.50
3268;DHT22;1646;52.450;13.326;2023-08-24T19:06:00;26.00;97.00
3268;DHT22;1646;52.450;13.326;2023-08-24T19:11:19;25.90;98.90
3268;DHT22;1646;52.450;13.326;2023-08-24T19:16:17;25.90;99.10
3268;DHT22;1646;52.450;13.326;2023-08-24T19:21:17;25.70;99.40
3268;DHT22;1646;52.450;13.326;2023-08-24T19:26:16;25.60;99.90
3268;DHT22;1646;52.450;13.326;2023-08-24T19:31:15;25.50;99.90
3268;DHT22;1646;52.450;13.326;2023-08-24T19:36:13;25.40;99.90
3268;DHT22;1646;52.450;13.326;2023-08-24T19:41:13;25.40;99.90
3268;DHT22;1646;52.450;13.326;2023-08-24T19:46:11;25.30;99.90
3268;DHT22;1646;52.450;13.326;2023-08-24T19:51:10;25.30;99.90
3268;DHT22;1646;52.450;13.326;2023-08-24T19:56:08;25.20;99.90
3268;DHT22;1646;52.450;13.326;2023-08-24T20:01:08;25.20;99.90
3268;DHT22;1646;52.450;13.326;2023-08-24T20:06:18;25.20;99.90
3268;DHT22;1646;52.450;13.326;2023-08-24T20:11:17;25.20;99.90
3268;DHT22;1646;52.450;13.326;2023-08-24T20:16:17;25.20;99.90
3268;DHT22;1646;52.450;13.326;2023-08-24T20:21:15;25.20;99.90
3268;DHT22;1646;52.450;13.326;2023-08-24T20:26:14;25.20;99.90
3268;DHT22;1646;52.450;13.326;2023-08-24T20:31:13;25.20;99.90
3268;DHT22;1646;52.450;13.326;2023-08-24T20:36:13;25.20;99.90
3268;DHT22;1646;52.450;13.326;2023-08-24T20:41:13;25.10;99.90
3268;DHT22;1646;52.450;13.326;2023-08-24T20:46:11;25.10;99.90
3268;DHT22;1646;52.450;13.326;2023-08-24T20:51:10;25.10;99.90
3268;DHT22;1646;52.450;13.326;2023-08-24T20:56:09;25.10;99.90
3268;DHT22;1646;52.450;13.326;2023-08-24T21:01:10;25.10;99.90
3268;DHT22;1646;52.450;13.326;2023-08-24T21:06:08;25.00;99.90
3268;DHT22;1646;52.450;13.326;2023-08-24T21:11:08;25.10;99.90
3268;DHT22;1646;52.450;13.326;2023-08-24T21:16:07;25.10;99.90
3268;DHT22;1646;52.450;13.326;2023-08-24T21:21:05;25.10;99.90
3268;DHT22;1646;52.450;13.326;2023-08-24T21:26:03;25.10;99.90
3268;DHT22;1646;52.450;13.326;2023-08-24T21:31:03;25.10;99.90
3268;DHT22;1646;52.450;13.326;2023-08-24T21:36:02;25.00;99.90
3268;DHT22;1646;52.450;13.326;2023-08-24T21:41:01;25.10;99.90
3268;DHT22;1646;52.450;13.326;2023-08-24T21:46:00;25.00;99.90
3268;DHT22;1646;52.450;13.326;2023-08-24T21:51:00;25.00;99.90
3268;DHT22;1646;52.450;13.326;2023-08-24T21:55:58;25.00;99.90
3268;DHT22;1646;52.450;13.326;2023-08-24T22:01:00;25.00;99.90
3268;DHT22;1646;52.450;13.326;2023-08-24T22:06:01;25.00;99.90
3268;DHT22;1646;52.450;13.326;2023-08-24T22:10:59;25.00;99.90
3268;DHT22;1646;52.450;13.326;2023-08-24T22:15:58;25.00;99.90
3268;DHT22;1646;52.450;13.326;2023-08-24T22:20:57;24.90;99.90
3268;DHT22;1646;52.450;13.326;2023-08-24T22:25:57;24.90;99.90
3268;DHT22;1646;52.450;13.326;2023-08-24T22:30:55;24.90;99.90
3268;DHT22;1646;52.450;13.326;2023-08-24T22:35:53;24.90;99.90
3268;DHT22;1646;52.450;13.326;2023-08-24T22:40:52;24.90;99.90
3268;DHT22;1646;52.450;13.326;2023-08-24T22:45:51;24.90;99.90
3268;DHT22;1646;52.450;13.326;2023-08-24T22:50:50;24.90;99.90
3268;DHT22;1646;52.450;13.326;2023-08-24T22:55:48;24.90;99.90
3268;DHT22;1646;52.450;13.326;2023-08-24T23:00:47;24.90;99.90
3268;DHT22;1646;52.450;13.326;2023-08-24T23:05:46;24.90;99.90
3268;DHT22;1646;52.450;13.326;2023-08-24T23:10:45;24.80;99.90
3268;DHT22;1646;52.450;13.326;2023-08-24T23:15:43;24.80;99.90
3268;DHT22;1646;52.450;13.326;2023-08-24T23:21:00;24.80;99.90
3268;DHT22;1646;52.450;13.326;2023-08-24T23:25:59;24.90;99.90
3268;DHT22;1646;52.450;13.326;2023-08-24T23:31:00;24.80;99.90
3268;DHT22;1646;52.450;13.326;2023-08-24T23:35:59;24.80;99.90
3268;DHT22;1646;52.450;13.326;2023-08-24T23:40:58;24.80;99.90
3268;DHT22;1646;52.450;13.326;2023-08-24T23:46:00;24.80;99.90
3268;DHT22;1646;52.450;13.326;2023-08-24T23:51:00;24.80;99.90
3268;DHT22;1646;52.450;13.326;2023-08-24T23:55:58;24.70;99.90
